createdAt,value
2019-04-06T00:02:37.892Z,187.33
2019-04-06T00:05:08.311Z,187.00
2019-04-06T00:07:36.824Z,182.87
2019-04-06T00:10:06.499Z,182.80
2019-04-06T00:12:34.955Z,189.17
2019-04-06T00:15:03.659Z,200.70
2019-04-06T00:17:32.109Z,196.17
2019-04-06T00:20:00.671Z,184.10
2019-04-06T00:22:29.116Z,178.90
2019-04-06T00:24:57.565Z,185.37
2019-04-06T00:27:26.039Z,183.40
2019-04-06T00:29:54.512Z,187.40
2019-04-06T00:32:24.608Z,198.20
2019-04-06T00:34:53.109Z,188.20
2019-04-06T00:37:21.580Z,187.30
2019-04-06T00:39:50.035Z,185.87
2019-04-06T00:42:18.592Z,184.17
2019-04-06T00:44:47.022Z,200.67
2019-04-06T00:47:15.653Z,196.53
2019-04-06T00:49:44.170Z,182.93
2019-04-06T00:52:12.651Z,205.80
2019-04-06T00:54:41.097Z,185.77
2019-04-06T00:57:09.633Z,186.37
2019-04-06T00:59:38.104Z,200.53
2019-04-06T01:02:07.164Z,185.67
2019-04-06T01:04:35.635Z,200.43
2019-04-06T01:07:04.314Z,211.37
2019-04-06T01:09:32.795Z,209.03
2019-04-06T01:12:01.249Z,185.27
2019-04-06T01:14:29.787Z,201.70
2019-04-06T01:16:58.229Z,193.33
2019-04-06T01:19:26.802Z,186.77
2019-04-06T01:21:55.241Z,185.40
2019-04-06T01:24:23.776Z,183.93
2019-04-06T01:26:52.261Z,204.30
2019-04-06T01:29:20.738Z,190.70
2019-04-06T01:31:49.188Z,201.80
2019-04-06T01:34:17.651Z,203.23
2019-04-06T01:36:46.179Z,187.50
2019-04-06T01:39:14.627Z,200.30
2019-04-06T01:41:43.106Z,209.73
2019-04-06T01:44:11.553Z,207.33
2019-04-06T01:46:40.039Z,211.33
2019-04-06T01:49:08.488Z,209.47
2019-04-06T01:51:36.943Z,233.60
2019-04-06T01:54:05.488Z,215.37
2019-04-06T01:56:34.011Z,213.40
2019-04-06T01:59:02.496Z,217.33
2019-04-06T02:01:32.591Z,217.20
2019-04-06T02:04:01.071Z,224.33
2019-04-06T02:06:29.590Z,209.10
2019-04-06T02:08:58.047Z,222.97
2019-04-06T02:11:26.519Z,228.93
2019-04-06T02:13:55.031Z,226.77
2019-04-06T02:16:23.517Z,227.87
2019-04-06T02:18:52.056Z,239.73
2019-04-06T02:21:20.535Z,230.80
2019-04-06T02:23:48.995Z,227.63
2019-04-06T02:26:17.475Z,230.03
2019-04-06T02:28:45.923Z,221.13
2019-04-06T02:31:16.058Z,224.40
2019-04-06T02:33:46.271Z,223.53
2019-04-06T02:36:28.740Z,228.50
2019-04-06T02:39:02.052Z,227.60
2019-04-06T02:41:47.614Z,222.83
2019-04-06T02:44:16.179Z,219.90
2019-04-06T02:46:44.847Z,213.10
2019-04-06T02:49:13.324Z,219.83
2019-04-06T02:51:41.787Z,218.13
2019-04-06T02:54:10.259Z,229.13
2019-04-06T02:56:46.154Z,219.50
2019-04-06T02:59:09.121Z,197.20
2019-04-06T03:01:37.599Z,214.77
2019-04-06T03:04:06.138Z,216.57
2019-04-06T03:06:34.623Z,233.90
2019-04-06T03:09:04.780Z,210.67
2019-04-06T03:11:33.327Z,216.90
2019-04-06T03:14:01.776Z,209.40
2019-04-06T03:16:30.750Z,209.13
2019-04-06T03:18:59.427Z,219.13
2019-04-06T03:21:27.955Z,223.70
2019-04-06T03:23:56.393Z,208.37
2019-04-06T03:26:24.858Z,227.00
2019-04-06T03:28:53.366Z,229.47
2019-04-06T03:31:26.072Z,223.43
2019-04-06T03:33:52.013Z,200.83
2019-04-06T03:36:20.744Z,208.90
2019-04-06T03:38:49.315Z,211.83
2019-04-06T03:41:17.793Z,214.53
2019-04-06T03:43:46.456Z,210.57
2019-04-06T03:46:15.003Z,222.53
2019-04-06T03:48:43.470Z,204.70
2019-04-06T03:51:12.503Z,196.03
2019-04-06T03:53:41.027Z,196.63
2019-04-06T03:56:09.568Z,200.83
2019-04-06T03:58:38.044Z,198.60
2019-04-06T04:01:06.572Z,191.03
2019-04-06T04:03:34.922Z,187.63
2019-04-06T04:06:03.507Z,179.10
2019-04-06T04:08:32.179Z,188.17
2019-04-06T04:11:00.706Z,176.03
2019-04-06T04:13:29.191Z,168.60
2019-04-06T04:15:58.018Z,180.27
2019-04-06T04:18:26.495Z,178.00
2019-04-06T04:20:55.112Z,169.90
2019-04-06T04:23:23.616Z,178.13
2019-04-06T04:25:52.212Z,164.30
2019-04-06T04:28:20.678Z,162.37
2019-04-06T04:30:49.127Z,156.77
2019-04-06T04:33:17.600Z,150.70
2019-04-06T04:35:46.113Z,146.40
2019-04-06T04:38:14.597Z,148.37
2019-04-06T04:40:43.077Z,159.83
2019-04-06T04:43:11.607Z,145.50
2019-04-06T04:45:40.058Z,148.80
2019-04-06T04:48:08.530Z,167.93
2019-04-06T04:50:37.028Z,173.10
2019-04-06T04:53:05.543Z,161.50
2019-04-06T04:55:34.023Z,158.80
2019-04-06T04:58:02.585Z,151.33
2019-04-06T05:00:31.154Z,158.53
2019-04-06T05:02:59.707Z,161.37
2019-04-06T05:05:28.171Z,153.77
2019-04-06T05:07:56.620Z,144.70
2019-04-06T05:10:25.091Z,149.07
2019-04-06T05:12:53.606Z,147.23
2019-04-06T05:15:44.587Z,144.63
2019-04-06T05:18:13.087Z,142.77
2019-04-06T05:20:41.607Z,146.70
2019-04-06T05:23:10.094Z,144.83
2019-04-06T05:25:38.536Z,147.43
2019-04-06T05:28:07.007Z,134.50
2019-04-06T05:30:35.456Z,147.13
2019-04-06T05:33:04.090Z,136.23
2019-04-06T05:35:32.542Z,140.53
2019-04-06T05:38:01.703Z,135.67
2019-04-06T05:40:30.129Z,129.13
2019-04-06T05:42:58.594Z,125.33
2019-04-06T05:45:27.156Z,126.63
2019-04-06T05:47:55.652Z,135.47
2019-04-06T05:50:24.199Z,124.90
2019-04-06T05:52:52.645Z,127.63
2019-04-06T05:55:21.187Z,118.57
2019-04-06T05:57:49.664Z,123.40
2019-04-06T06:00:18.223Z,127.63
2019-04-06T06:03:06.170Z,124.00
2019-04-06T06:05:34.719Z,127.50
2019-04-06T06:08:03.212Z,129.07
2019-04-06T06:10:31.673Z,119.53
2019-04-06T06:13:00.127Z,123.33
2019-04-06T06:15:28.611Z,121.37
2019-04-06T06:17:57.099Z,118.90
2019-04-06T06:20:25.561Z,121.67
2019-04-06T06:22:54.043Z,117.00
2019-04-06T06:25:22.508Z,123.43
2019-04-06T06:27:50.994Z,127.67
2019-04-06T06:30:19.740Z,117.07
2019-04-06T06:32:48.264Z,119.23
2019-04-06T06:35:16.779Z,122.43
2019-04-06T06:37:45.275Z,114.70
2019-04-06T06:40:14.291Z,125.70
2019-04-06T06:42:42.833Z,113.67
2019-04-06T06:45:11.480Z,116.60
2019-04-06T06:47:40.365Z,123.93
2019-04-06T06:50:08.954Z,118.90
2019-04-06T06:52:37.449Z,127.33
2019-04-06T06:55:06.487Z,115.13
2019-04-06T06:57:34.998Z,116.63
2019-04-06T07:00:05.123Z,113.93
2019-04-06T07:02:33.610Z,118.17
2019-04-06T07:05:02.126Z,116.97
2019-04-06T07:07:30.826Z,111.73
2019-04-06T07:10:05.017Z,114.10
2019-04-06T07:12:29.644Z,105.40
2019-04-06T07:15:17.494Z,101.63
2019-04-06T07:17:45.997Z,108.17
2019-04-06T07:20:14.599Z,109.33
2019-04-06T07:22:43.267Z,110.40
2019-04-06T07:25:11.903Z,103.63
2019-04-06T07:27:40.409Z,103.47
2019-04-06T07:30:09.060Z,110.23
2019-04-06T07:32:37.686Z,108.27
2019-04-06T07:35:06.830Z,97.60
2019-04-06T07:37:35.521Z,103.30
2019-04-06T07:40:08.057Z,102.90
2019-04-06T07:42:36.892Z,99.80
2019-04-06T07:45:09.063Z,98.60
2019-04-06T07:47:37.525Z,94.07
2019-04-06T07:50:07.037Z,99.50
2019-04-06T07:52:35.881Z,100.13
2019-04-06T07:55:08.650Z,99.57
2019-04-06T07:57:37.096Z,98.33
2019-04-06T08:00:07.550Z,111.20
2019-04-06T08:02:36.119Z,97.43
2019-04-06T08:05:05.741Z,96.43
2019-04-06T08:07:34.408Z,97.67
2019-04-06T08:10:03.394Z,97.37
2019-04-06T08:12:31.879Z,96.93
2019-04-06T08:15:00.399Z,105.63
2019-04-06T08:17:28.851Z,102.90
2019-04-06T08:19:57.342Z,102.80
2019-04-06T08:22:25.849Z,95.47
2019-04-06T08:24:54.331Z,92.40
2019-04-06T08:27:22.774Z,91.80
2019-04-06T08:29:51.917Z,92.23
2019-04-06T08:32:20.454Z,95.43
2019-04-06T08:34:48.903Z,94.23
2019-04-06T08:37:17.383Z,92.00
2019-04-06T08:39:45.897Z,92.63
2019-04-06T08:42:14.382Z,91.77
2019-04-06T08:44:42.867Z,89.30
2019-04-06T08:47:11.401Z,84.07
2019-04-06T08:49:39.912Z,84.60
2019-04-06T08:52:08.649Z,88.50
2019-04-06T08:54:37.309Z,84.77
2019-04-06T08:57:05.742Z,82.13
2019-04-06T08:59:34.234Z,80.57
2019-04-06T09:02:02.681Z,81.10
2019-04-06T09:04:31.176Z,81.93
2019-04-06T09:06:59.692Z,77.70
2019-04-06T09:09:28.169Z,78.17
2019-04-06T09:11:56.691Z,71.97
2019-04-06T09:14:25.350Z,68.30
2019-04-06T09:16:53.916Z,70.33
2019-04-06T09:19:22.384Z,73.60
2019-04-06T09:21:50.867Z,68.97
2019-04-06T09:24:19.562Z,66.73
2019-04-06T09:26:49.020Z,68.40
2019-04-06T09:29:24.091Z,71.97
2019-04-06T09:31:47.658Z,73.23
2019-04-06T09:34:23.308Z,69.23
2019-04-06T09:36:51.746Z,67.40
2019-04-06T09:39:20.191Z,69.47
2019-04-06T09:41:48.666Z,66.00
2019-04-06T09:44:21.755Z,75.27
2019-04-06T09:46:54.618Z,75.77
2019-04-06T09:49:24.784Z,77.17
2019-04-06T09:51:54.938Z,71.80
2019-04-06T09:54:25.035Z,73.10
2019-04-06T09:56:55.178Z,67.90
2019-04-06T09:59:53.860Z,79.17
2019-04-06T10:02:24.010Z,70.90
2019-04-06T10:04:56.615Z,74.77
2019-04-06T10:07:38.338Z,73.27
2019-04-06T10:10:24.497Z,69.17
2019-04-06T10:13:12.596Z,69.87
2019-04-06T10:15:42.779Z,72.93
2019-04-06T10:18:25.117Z,63.37
2019-04-06T10:20:55.240Z,69.07
2019-04-06T10:23:33.924Z,76.20
2019-04-06T10:26:06.573Z,69.93
2019-04-06T10:28:39.448Z,70.13
2019-04-06T10:31:12.530Z,75.70
2019-04-06T10:33:51.254Z,64.50
2019-04-06T10:36:31.745Z,68.43
2019-04-06T10:39:18.413Z,66.30
2019-04-06T10:41:51.286Z,64.75
2019-04-06T10:44:39.681Z,60.87
2019-04-06T10:47:18.903Z,63.78
2019-04-06T10:49:58.230Z,68.30
2019-04-06T10:52:32.680Z,69.37
2019-04-06T10:55:02.836Z,65.37
2019-04-06T10:57:32.971Z,65.47
2019-04-06T11:00:14.936Z,62.25
2019-04-06T11:02:45.063Z,63.98
2019-04-06T11:05:18.390Z,60.80
2019-04-06T11:07:48.565Z,63.13
2019-04-06T11:10:35.325Z,60.30
2019-04-06T11:13:08.473Z,59.70
2019-04-06T11:15:38.598Z,59.77
2019-04-06T11:18:08.683Z,65.50
2019-04-06T11:20:41.789Z,61.20
2019-04-06T11:23:27.226Z,60.48
2019-04-06T11:26:03.083Z,61.20
2019-04-06T11:28:33.162Z,60.98
2019-04-06T11:31:03.274Z,63.60
2019-04-06T11:33:36.300Z,62.48
2019-04-06T11:36:06.634Z,61.92
2019-04-06T11:38:52.912Z,57.95
2019-04-06T11:41:39.309Z,59.55
2019-04-06T11:44:09.515Z,58.60
2019-04-06T11:46:42.040Z,53.17
2019-04-06T11:49:28.283Z,58.73
2019-04-06T11:52:13.577Z,54.48
2019-04-06T11:54:55.595Z,54.83
2019-04-06T11:57:26.064Z,62.25
2019-04-06T11:59:56.272Z,58.87
2019-04-06T12:02:39.050Z,55.88
2019-04-06T12:05:12.272Z,53.08
2019-04-06T12:07:59.128Z,52.05
2019-04-06T12:10:35.391Z,47.40
2019-04-06T12:13:17.767Z,51.83
2019-04-06T12:15:56.757Z,51.05
2019-04-06T12:18:41.641Z,54.73
2019-04-06T12:21:15.052Z,53.28
2019-04-06T12:23:45.886Z,53.80
2019-04-06T12:26:16.378Z,54.40
2019-04-06T12:28:46.569Z,51.18
2019-04-06T12:31:25.574Z,45.12
2019-04-06T12:34:01.706Z,50.25
2019-04-06T12:36:31.828Z,51.53
2019-04-06T12:39:05.002Z,48.40
2019-04-06T12:41:47.223Z,48.00
2019-04-06T12:44:23.100Z,47.48
2019-04-06T12:46:55.947Z,49.77
2019-04-06T12:49:41.989Z,48.65
2019-04-06T12:52:13.245Z,49.25
2019-04-06T12:54:43.427Z,50.58
2019-04-06T12:57:25.451Z,47.43
2019-04-06T13:00:07.347Z,46.42
2019-04-06T13:02:54.183Z,49.95
2019-04-06T13:05:33.556Z,49.50
2019-04-06T13:08:18.476Z,45.95
2019-04-06T13:11:06.687Z,43.87
2019-04-06T13:13:36.964Z,44.33
2019-04-06T13:16:07.382Z,45.60
2019-04-06T13:18:37.704Z,44.33
2019-04-06T13:21:07.907Z,44.15
2019-04-06T13:23:43.487Z,45.52
2019-04-06T13:26:22.311Z,45.10
2019-04-06T13:28:58.064Z,39.92
2019-04-06T13:31:44.858Z,39.35
2019-04-06T13:34:17.984Z,42.00
2019-04-06T13:36:59.923Z,39.98
2019-04-06T13:39:42.271Z,42.08
2019-04-06T13:42:12.362Z,40.78
2019-04-06T13:44:48.105Z,39.27
2019-04-06T13:47:21.039Z,38.08
2019-04-06T13:50:06.654Z,40.17
2019-04-06T13:52:52.896Z,37.93
2019-04-06T13:55:31.884Z,34.08
2019-04-06T13:58:18.222Z,34.73
2019-04-06T14:00:54.179Z,33.30
2019-04-06T14:03:40.783Z,32.83
2019-04-06T14:06:14.160Z,34.10
2019-04-06T14:09:00.449Z,31.25
2019-04-06T14:11:36.550Z,29.42
2019-04-06T14:14:12.690Z,31.85
2019-04-06T14:16:48.291Z,30.43
2019-04-06T14:19:21.123Z,32.20
2019-04-06T14:21:53.952Z,29.55
2019-04-06T14:24:26.795Z,29.50
2019-04-06T14:27:13.446Z,32.35
2019-04-06T14:29:49.252Z,29.27
2019-04-06T14:32:54.095Z,24.40
2019-04-06T14:35:33.636Z,30.50
2019-04-06T14:38:06.872Z,27.25
2019-04-06T14:40:43.031Z,27.10
2019-04-06T14:43:16.170Z,26.17
2019-04-06T14:46:01.542Z,24.55
2019-04-06T14:48:40.676Z,25.68
2019-04-06T14:51:13.764Z,24.18
2019-04-06T14:53:46.901Z,27.73
2019-04-06T14:56:33.723Z,29.82
2019-04-06T14:59:15.841Z,29.05
2019-04-06T15:01:58.204Z,28.25
2019-04-06T15:04:41.611Z,28.17
2019-04-06T15:07:14.255Z,28.57
2019-04-06T15:12:50.006Z,31.05
2019-04-06T15:15:32.195Z,28.10
2019-04-06T15:18:20.814Z,32.93
2019-04-06T15:20:57.274Z,28.77
2019-04-06T15:23:27.851Z,29.98
2019-04-06T15:26:10.074Z,30.50
2019-04-06T15:28:40.215Z,32.93
2019-04-06T15:31:22.271Z,32.00
2019-04-06T15:33:52.450Z,31.75
2019-04-06T15:36:22.781Z,36.00
2019-04-06T15:38:52.991Z,32.95
2019-04-06T15:41:26.355Z,32.65
2019-04-06T15:44:05.307Z,34.75
2019-04-06T15:46:51.805Z,34.67
2019-04-06T15:49:21.972Z,34.53
2019-04-06T15:52:10.717Z,31.95
2019-04-06T15:54:41.559Z,35.13
2019-04-06T15:57:12.012Z,37.70
2019-04-06T15:59:51.155Z,33.42
2019-04-06T16:02:38.238Z,33.23
2019-04-06T16:05:09.838Z,35.40
2019-04-06T16:07:52.006Z,34.65
2019-04-06T16:10:28.281Z,35.33
2019-04-06T16:13:01.687Z,32.60
2019-04-06T16:15:41.340Z,33.28
2019-04-06T16:18:11.732Z,34.78
2019-04-06T16:20:54.476Z,35.43
2019-04-06T16:23:31.248Z,33.33
2019-04-06T16:26:13.413Z,35.98
2019-04-06T16:29:01.600Z,38.42
2019-04-06T16:31:48.098Z,32.40
2019-04-06T16:34:24.493Z,32.40
2019-04-06T16:36:54.738Z,33.75
2019-04-06T16:39:30.579Z,33.53
2019-04-06T16:42:00.874Z,34.70
2019-04-06T16:44:31.464Z,35.68
2019-04-06T16:47:10.841Z,34.83
2019-04-06T16:49:52.710Z,35.05
2019-04-06T16:52:23.117Z,37.25
2019-04-06T16:55:05.435Z,37.23
2019-04-06T16:57:53.200Z,37.38
2019-04-06T17:00:23.286Z,33.78
2019-04-06T17:02:59.148Z,35.90
2019-04-06T17:05:32.035Z,36.63
2019-04-06T17:08:11.511Z,40.17
2019-04-06T17:10:51.729Z,39.10
2019-04-06T17:13:22.310Z,39.90
2019-04-06T17:15:55.148Z,38.02
2019-04-06T17:18:27.694Z,40.33
2019-04-06T17:21:14.840Z,39.95
2019-04-06T17:23:47.845Z,39.92
2019-04-06T17:26:20.536Z,38.40
2019-04-06T17:28:59.969Z,40.85
2019-04-06T17:31:36.024Z,40.45
2019-04-06T17:34:25.873Z,38.15
2019-04-06T17:37:07.939Z,40.33
2019-04-06T17:39:40.622Z,39.42
2019-04-06T17:42:26.254Z,41.95
2019-04-06T17:45:08.378Z,38.38
2019-04-06T17:47:54.679Z,42.78
2019-04-06T17:50:24.803Z,44.95
2019-04-06T17:52:54.923Z,39.90
2019-04-06T17:55:43.548Z,36.95
2019-04-06T17:58:30.594Z,38.02
2019-04-06T18:01:00.755Z,38.60
2019-04-06T18:03:30.908Z,38.42
2019-04-06T18:06:04.313Z,36.15
2019-04-06T18:08:51.139Z,43.98
2019-04-06T18:11:30.810Z,40.88
2019-04-06T18:13:59.739Z,39.23
2019-04-06T18:16:30.625Z,46.80
2019-04-06T18:18:59.080Z,38.98
2019-04-06T18:21:27.903Z,42.60
2019-04-06T18:23:56.509Z,43.80
2019-04-06T18:26:25.110Z,41.30
2019-04-06T18:28:53.799Z,37.95
2019-04-06T18:31:33.830Z,43.13
2019-04-06T18:34:02.726Z,40.70
2019-04-06T18:36:44.438Z,39.20
2019-04-06T18:39:15.168Z,35.78
2019-04-06T18:41:43.678Z,37.28
2019-04-06T18:44:12.156Z,34.63
2019-04-06T18:46:40.611Z,37.53
2019-04-06T18:49:09.091Z,43.65
2019-04-06T18:51:37.536Z,43.75
2019-04-06T18:54:08.320Z,38.20
2019-04-06T18:56:36.424Z,40.75
2019-04-06T18:59:05.137Z,44.85
2019-04-06T19:01:33.679Z,39.73
2019-04-06T19:04:02.254Z,40.15
2019-04-06T19:06:30.731Z,44.45
2019-04-06T19:08:59.603Z,39.78
2019-04-06T19:11:28.238Z,44.73
2019-04-06T19:13:56.737Z,45.75
2019-04-06T19:16:25.239Z,41.58
2019-04-06T19:18:53.687Z,42.25
2019-04-06T19:21:22.173Z,42.45
2019-04-06T19:23:50.691Z,39.60
2019-04-06T19:26:19.468Z,41.95
2019-04-06T19:28:48.478Z,48.42
2019-04-06T19:31:17.029Z,40.60
2019-04-06T19:33:45.729Z,42.03
2019-04-06T19:36:14.696Z,41.58
2019-04-06T19:38:43.790Z,41.00
2019-04-06T19:41:12.439Z,43.08
2019-04-06T19:43:41.021Z,47.13
2019-04-06T19:46:09.498Z,60.48
2019-04-06T19:48:40.493Z,58.90
2019-04-06T19:51:08.647Z,47.78
2019-04-06T19:53:37.258Z,48.08
2019-04-06T19:56:06.447Z,45.25
2019-04-06T19:58:35.031Z,49.60
2019-04-06T20:01:03.492Z,48.63
2019-04-06T20:03:35.838Z,45.20
2019-04-06T20:06:02.628Z,46.70
2019-04-06T20:08:31.377Z,44.88
2019-04-06T20:11:00.980Z,46.90
2019-04-06T20:13:29.546Z,48.58
2019-04-06T20:15:57.984Z,50.95
2019-04-06T20:18:26.467Z,47.23
2019-04-06T20:20:55.459Z,46.50
2019-04-06T20:23:24.350Z,49.65
2019-04-06T20:25:53.094Z,49.87
2019-04-06T20:28:22.175Z,48.95
2019-04-06T20:30:50.863Z,54.30
2019-04-06T20:33:20.495Z,48.78
2019-04-06T20:35:49.099Z,48.23
2019-04-06T20:38:17.565Z,49.05
2019-04-06T20:40:46.028Z,48.02
2019-04-06T20:43:14.503Z,48.65
2019-04-06T20:45:43.186Z,45.65
2019-04-06T20:48:11.808Z,50.58
2019-04-06T20:50:40.819Z,46.75
2019-04-06T20:53:09.893Z,48.75
2019-04-06T20:55:38.733Z,45.43
2019-04-06T20:58:07.362Z,47.03
2019-04-06T21:00:36.267Z,49.53
2019-04-06T21:03:05.214Z,47.50
2019-04-06T21:05:33.810Z,53.13
2019-04-06T21:08:02.322Z,48.10
2019-04-06T21:10:30.803Z,50.03
2019-04-06T21:12:59.873Z,46.23
2019-04-06T21:15:28.480Z,49.13
2019-04-06T21:17:57.859Z,50.05
2019-04-06T21:20:26.529Z,49.40
2019-04-06T21:22:55.201Z,51.27
2019-04-06T21:25:23.663Z,50.57
2019-04-06T21:27:52.480Z,53.93
2019-04-06T21:30:21.397Z,48.33
2019-04-06T21:32:49.998Z,48.90
2019-04-06T21:35:18.894Z,46.00
2019-04-06T21:37:47.487Z,49.37
2019-04-06T21:40:17.387Z,53.57
2019-04-06T21:42:46.003Z,47.97
2019-04-06T21:45:15.258Z,49.80
2019-04-06T21:47:44.210Z,48.13
2019-04-06T21:50:13.691Z,45.43
2019-04-06T21:52:42.299Z,50.63
2019-04-06T21:55:13.840Z,47.13
2019-04-06T21:57:43.113Z,47.03
2019-04-06T22:00:15.220Z,52.93
2019-04-06T22:02:43.828Z,54.10
2019-04-06T22:05:13.639Z,53.20
2019-04-06T22:07:49.543Z,54.70
2019-04-06T22:10:16.382Z,59.20
2019-04-06T22:12:44.806Z,59.23
2019-04-06T22:15:15.251Z,62.23
2019-04-06T22:17:43.818Z,56.87
2019-04-06T22:20:12.909Z,63.43
2019-04-06T22:22:41.652Z,65.20
2019-04-06T22:25:11.076Z,62.47
2019-04-06T22:27:39.825Z,61.70
2019-04-06T22:30:09.924Z,56.87
2019-04-06T22:32:39.167Z,53.07
2019-04-06T22:35:08.909Z,54.80
2019-04-06T22:37:37.545Z,52.03
2019-04-06T22:40:07.391Z,52.00
2019-04-06T22:42:36.621Z,54.97
2019-04-06T22:45:09.301Z,56.47
2019-04-06T22:47:38.115Z,54.13
2019-04-06T22:50:08.090Z,52.97
2019-04-06T22:52:36.744Z,53.30
2019-04-06T22:55:07.495Z,53.90
2019-04-06T22:57:36.123Z,60.37
2019-04-06T23:00:08.521Z,56.80
2019-04-06T23:02:41.600Z,56.17
2019-04-06T23:05:29.947Z,58.00
2019-04-06T23:07:58.767Z,53.47
2019-04-06T23:10:27.445Z,57.57
2019-04-06T23:12:56.448Z,59.20
2019-04-06T23:15:25.470Z,58.30
2019-04-06T23:17:54.548Z,56.97
2019-04-06T23:20:23.025Z,58.00
2019-04-06T23:22:51.524Z,59.30
2019-04-06T23:25:20.031Z,60.10
2019-04-06T23:27:48.516Z,63.37
2019-04-06T23:30:17.325Z,60.10
2019-04-06T23:32:46.055Z,53.93
2019-04-06T23:35:15.275Z,56.17
2019-04-06T23:37:43.786Z,55.13
2019-04-06T23:40:12.453Z,55.00
2019-04-06T23:42:40.890Z,54.40
2019-04-06T23:45:09.506Z,54.30
2019-04-06T23:47:38.011Z,54.23
2019-04-06T23:50:06.855Z,53.60
2019-04-06T23:52:35.438Z,54.10
2019-04-06T23:55:05.985Z,55.13
2019-04-06T23:57:35.076Z,53.37
